createdAt,value
2023-02-19T00:00:11.462Z,10.09
2023-02-19T00:01:11.812Z,10.17
2023-02-19T00:02:11.452Z,10.13
2023-02-19T00:03:11.464Z,10.15
2023-02-19T00:04:11.444Z,10.15
2023-02-19T00:05:11.503Z,10.17
2023-02-19T00:06:11.453Z,10.15
2023-02-19T00:07:11.435Z,10.16
2023-02-19T00:08:11.429Z,10.15
2023-02-19T00:09:11.448Z,10.23
2023-02-19T00:10:11.420Z,10.13
2023-02-19T00:11:11.793Z,10.20
2023-02-19T00:12:11.430Z,10.16
2023-02-19T00:13:11.413Z,10.15
2023-02-19T00:14:11.442Z,10.19
2023-02-19T00:15:11.417Z,10.19
2023-02-19T00:16:11.427Z,10.23
2023-02-19T00:17:11.400Z,10.22
2023-02-19T00:18:11.416Z,10.20
2023-02-19T00:19:11.417Z,10.20
2023-02-19T00:20:11.425Z,10.09
2023-02-19T00:21:11.783Z,10.23
2023-02-19T00:22:11.410Z,10.15
2023-02-19T00:23:11.375Z,10.15
2023-02-19T00:24:11.378Z,10.15
2023-02-19T00:25:11.481Z,10.16
2023-02-19T00:26:18.029Z,10.16
2023-02-19T00:27:11.360Z,10.16
2023-02-19T00:28:11.356Z,10.15
2023-02-19T00:29:11.351Z,10.20
2023-02-19T00:30:11.386Z,10.20
2023-02-19T00:31:11.864Z,10.16
2023-02-19T00:32:11.375Z,10.16
2023-02-19T00:33:11.341Z,10.10
2023-02-19T00:34:11.337Z,10.15
2023-02-19T00:35:11.331Z,10.09
2023-02-19T00:36:11.330Z,10.13
2023-02-19T00:37:11.324Z,10.22
2023-02-19T00:38:11.322Z,10.12
2023-02-19T00:39:11.319Z,10.13
2023-02-19T00:40:11.314Z,10.05
2023-02-19T00:41:11.636Z,10.15
2023-02-19T00:42:11.309Z,10.19
2023-02-19T00:43:11.302Z,10.20
2023-02-19T00:44:11.308Z,10.09
2023-02-19T00:45:11.294Z,10.05
2023-02-19T00:46:11.319Z,10.05
2023-02-19T00:47:11.288Z,10.12
2023-02-19T00:48:11.291Z,10.07
2023-02-19T00:49:11.281Z,10.07
2023-02-19T00:50:11.282Z,10.10
2023-02-19T00:51:11.605Z,10.19
2023-02-19T00:52:11.273Z,10.20
2023-02-19T00:53:11.269Z,10.16
2023-02-19T00:54:11.274Z,10.19
2023-02-19T00:55:11.516Z,10.09
2023-02-19T00:56:11.258Z,10.10
2023-02-19T00:57:11.278Z,10.13
2023-02-19T00:58:11.258Z,10.12
2023-02-19T00:59:11.244Z,10.12
2023-02-19T01:00:11.242Z,10.20
2023-02-19T01:01:11.675Z,10.07
2023-02-19T01:02:11.237Z,10.17
2023-02-19T01:03:11.229Z,10.07
2023-02-19T01:04:11.229Z,10.10
2023-02-19T01:05:11.221Z,10.09
2023-02-19T01:06:11.220Z,10.16
2023-02-19T01:07:11.213Z,10.13
2023-02-19T01:08:11.213Z,10.16
2023-02-19T01:09:11.204Z,10.12
2023-02-19T01:10:11.202Z,10.12
2023-02-19T01:11:11.670Z,10.15
2023-02-19T01:12:11.196Z,10.09
2023-02-19T01:13:11.207Z,10.09
2023-02-19T01:14:11.186Z,10.15
2023-02-19T01:15:11.185Z,10.07
2023-02-19T01:16:11.278Z,10.07
2023-02-19T01:17:11.179Z,10.05
2023-02-19T01:18:11.175Z,10.05
2023-02-19T01:19:11.232Z,10.07
2023-02-19T01:20:11.162Z,10.09
2023-02-19T01:21:11.519Z,10.07
2023-02-19T01:22:11.154Z,10.09
2023-02-19T01:23:11.151Z,10.04
2023-02-19T01:24:11.157Z,10.12
2023-02-19T01:25:11.144Z,10.10
2023-02-19T01:26:11.141Z,10.09
2023-02-19T01:27:11.139Z,10.13
2023-02-19T01:28:11.130Z,10.09
2023-02-19T01:29:11.147Z,10.07
2023-02-19T01:30:11.122Z,10.07
2023-02-19T01:31:11.577Z,10.09
2023-02-19T01:32:11.226Z,10.04
2023-02-19T01:33:11.111Z,10.13
2023-02-19T01:34:11.107Z,10.10
2023-02-19T01:35:11.101Z,10.09
2023-02-19T01:36:11.100Z,10.10
2023-02-19T01:37:11.095Z,10.07
2023-02-19T01:38:11.095Z,10.05
2023-02-19T01:39:11.098Z,10.05
2023-02-19T01:40:11.086Z,10.05
2023-02-19T01:41:11.339Z,10.04
2023-02-19T01:42:11.079Z,10.05
2023-02-19T01:43:11.076Z,10.13
2023-02-19T01:44:11.074Z,10.04
2023-02-19T01:45:11.089Z,10.09
2023-02-19T01:46:11.113Z,10.10
2023-02-19T01:47:11.061Z,10.05
2023-02-19T01:48:11.058Z,10.07
2023-02-19T01:49:11.053Z,10.02
2023-02-19T01:50:11.052Z,10.13
2023-02-19T01:51:11.446Z,10.13
2023-02-19T01:52:11.043Z,10.10
2023-02-19T01:53:11.041Z,10.02
2023-02-19T01:54:11.036Z,10.05
2023-02-19T01:55:11.031Z,10.07
2023-02-19T01:56:11.030Z,10.09
2023-02-19T01:57:11.056Z,10.09
2023-02-19T01:58:11.021Z,10.04
2023-02-19T01:59:11.021Z,10.13
2023-02-19T02:00:11.366Z,10.09
2023-02-19T02:01:11.518Z,10.07
2023-02-19T02:02:11.048Z,10.12
2023-02-19T02:03:11.001Z,10.12
2023-02-19T02:04:11.148Z,10.15
2023-02-19T02:05:10.993Z,10.05
2023-02-19T02:06:10.992Z,10.07
2023-02-19T02:07:10.996Z,10.15
2023-02-19T02:08:10.990Z,10.07
2023-02-19T02:09:10.982Z,10.07
2023-02-19T02:10:10.979Z,10.16
2023-02-19T02:11:11.293Z,10.05
2023-02-19T02:12:10.979Z,10.04
2023-02-19T02:13:10.962Z,10.09
2023-02-19T02:14:10.966Z,10.15
2023-02-19T02:15:10.978Z,10.13
2023-02-19T02:16:10.966Z,10.15
2023-02-19T02:17:10.970Z,10.09
2023-02-19T02:18:10.950Z,10.07
2023-02-19T02:19:10.942Z,10.15
2023-02-19T02:20:10.941Z,10.12
2023-02-19T02:21:11.294Z,10.10
2023-02-19T02:22:10.935Z,10.04
2023-02-19T02:23:10.942Z,10.07
2023-02-19T02:24:10.934Z,10.05
2023-02-19T02:25:10.925Z,10.05
2023-02-19T02:26:10.952Z,10.15
2023-02-19T02:27:10.928Z,10.12
2023-02-19T02:28:10.921Z,10.12
2023-02-19T02:29:10.903Z,10.07
2023-02-19T02:30:10.969Z,10.05
2023-02-19T02:31:11.240Z,10.04
2023-02-19T02:32:10.941Z,10.12
2023-02-19T02:33:10.911Z,10.09
2023-02-19T02:34:10.888Z,10.09
2023-02-19T02:35:10.890Z,10.13
2023-02-19T02:36:10.890Z,10.13
2023-02-19T02:37:10.882Z,10.13
2023-02-19T02:38:10.875Z,10.05
2023-02-19T02:39:10.873Z,10.05
2023-02-19T02:40:10.874Z,10.13
2023-02-19T02:41:11.176Z,10.12
2023-02-19T02:42:10.861Z,10.07
2023-02-19T02:43:10.855Z,10.09
2023-02-19T02:44:10.862Z,10.10
2023-02-19T02:45:10.846Z,10.12
2023-02-19T02:46:10.846Z,10.12
2023-02-19T02:47:10.851Z,10.09
2023-02-19T02:48:10.832Z,10.07
2023-02-19T02:49:10.827Z,10.05
2023-02-19T02:50:10.827Z,9.99
2023-02-19T02:51:11.153Z,10.02
2023-02-19T02:52:10.818Z,10.05
2023-02-19T02:53:10.832Z,10.04
2023-02-19T02:54:10.824Z,9.98
2023-02-19T02:55:10.806Z,10.07
2023-02-19T02:56:10.802Z,10.10
2023-02-19T02:57:10.797Z,10.07
2023-02-19T02:58:10.792Z,10.02
2023-02-19T02:59:10.792Z,10.02
2023-02-19T03:00:10.801Z,10.07
2023-02-19T03:01:11.109Z,10.05
2023-02-19T03:02:10.838Z,9.95
2023-02-19T03:03:10.774Z,10.04
2023-02-19T03:04:10.775Z,10.05
2023-02-19T03:05:10.965Z,10.02
2023-02-19T03:06:10.766Z,9.95
2023-02-19T03:07:10.759Z,9.95
2023-02-19T03:08:10.755Z,9.89
2023-02-19T03:09:10.748Z,9.95
2023-02-19T03:10:10.744Z,9.95
2023-02-19T03:11:11.054Z,9.91
2023-02-19T03:12:10.741Z,9.95
2023-02-19T03:13:10.744Z,9.94
2023-02-19T03:14:10.731Z,9.97
2023-02-19T03:15:10.759Z,9.98
2023-02-19T03:16:10.756Z,9.87
2023-02-19T03:17:10.721Z,10.01
2023-02-19T03:18:10.713Z,10.04
2023-02-19T03:19:10.711Z,9.95
2023-02-19T03:20:10.708Z,10.02
2023-02-19T03:21:11.082Z,10.04
2023-02-19T03:22:10.697Z,9.95
2023-02-19T03:23:10.697Z,9.97
2023-02-19T03:24:10.692Z,9.99
2023-02-19T03:25:10.686Z,9.99
2023-02-19T03:26:10.758Z,9.97
2023-02-19T03:27:10.678Z,9.97
2023-02-19T03:28:10.676Z,9.97
2023-02-19T03:29:10.673Z,9.87
2023-02-19T03:30:10.718Z,9.84
2023-02-19T03:31:11.178Z,9.86
2023-02-19T03:32:10.727Z,9.92
2023-02-19T03:33:10.652Z,9.91
2023-02-19T03:34:10.649Z,9.86
2023-02-19T03:35:10.649Z,9.95
2023-02-19T03:36:10.651Z,9.86
2023-02-19T03:37:10.640Z,9.86
2023-02-19T03:38:10.631Z,9.86
2023-02-19T03:39:10.631Z,9.82
2023-02-19T03:40:10.625Z,9.87
2023-02-19T03:41:11.073Z,9.98
2023-02-19T03:42:10.618Z,9.82
2023-02-19T03:43:10.622Z,9.94
2023-02-19T03:44:10.613Z,9.87
2023-02-19T03:45:10.608Z,9.87
2023-02-19T03:46:10.674Z,9.91
2023-02-19T03:47:10.598Z,9.84
2023-02-19T03:48:10.593Z,9.91
2023-02-19T03:49:10.591Z,9.89
2023-02-19T03:50:10.585Z,9.83
2023-02-19T03:51:11.010Z,9.82
2023-02-19T03:52:10.578Z,9.94
2023-02-19T03:53:10.579Z,9.84
2023-02-19T03:54:10.576Z,9.83
2023-02-19T03:55:10.590Z,9.82
2023-02-19T03:56:10.564Z,9.87
2023-02-19T03:57:10.575Z,9.82
2023-02-19T03:58:10.559Z,9.87
2023-02-19T03:59:10.579Z,9.84
2023-02-19T04:00:10.550Z,9.83
2023-02-19T04:01:11.111Z,9.79
2023-02-19T04:02:10.575Z,9.83
2023-02-19T04:03:10.541Z,9.86
2023-02-19T04:04:10.537Z,9.79
2023-02-19T04:05:13.205Z,9.87
2023-02-19T04:06:10.528Z,9.83
2023-02-19T04:07:10.526Z,9.84
2023-02-19T04:08:10.525Z,9.79
2023-02-19T04:09:10.520Z,9.87
2023-02-19T04:10:10.515Z,9.86
2023-02-19T04:11:10.891Z,9.84
2023-02-19T04:12:10.510Z,9.83
2023-02-19T04:13:10.503Z,9.83
2023-02-19T04:14:10.505Z,9.83
2023-02-19T04:15:10.501Z,9.76
2023-02-19T04:16:10.492Z,9.86
2023-02-19T04:17:10.489Z,9.84
2023-02-19T04:18:10.486Z,9.79
2023-02-19T04:19:10.483Z,9.87
2023-02-19T04:20:10.479Z,9.82
2023-02-19T04:21:10.876Z,9.80
2023-02-19T04:22:10.468Z,9.83
2023-02-19T04:23:10.468Z,9.79
2023-02-19T04:24:10.461Z,9.87
2023-02-19T04:25:10.466Z,9.87
2023-02-19T04:26:10.452Z,9.84
2023-02-19T04:27:10.457Z,9.80
2023-02-19T04:28:10.445Z,9.83
2023-02-19T04:29:10.444Z,9.82
2023-02-19T04:30:10.508Z,9.86
2023-02-19T04:31:10.727Z,9.84
2023-02-19T04:32:10.426Z,9.87
2023-02-19T04:33:10.425Z,9.82
2023-02-19T04:34:10.416Z,9.82
2023-02-19T04:35:10.418Z,9.74
2023-02-19T04:36:10.410Z,9.82
2023-02-19T04:37:10.422Z,9.89
2023-02-19T04:38:10.402Z,9.80
2023-02-19T04:39:10.400Z,9.76
2023-02-19T04:40:10.399Z,9.87
2023-02-19T04:41:10.741Z,9.87
2023-02-19T04:42:10.388Z,9.79
2023-02-19T04:43:10.384Z,9.76
2023-02-19T04:44:10.378Z,9.80
2023-02-19T04:45:10.374Z,9.76
2023-02-19T04:46:10.415Z,9.83
2023-02-19T04:47:10.367Z,9.79
2023-02-19T04:48:10.368Z,9.82
2023-02-19T04:49:10.358Z,9.79
2023-02-19T04:50:10.362Z,9.77
2023-02-19T04:51:10.596Z,9.77
2023-02-19T04:52:10.353Z,9.82
2023-02-19T04:53:10.344Z,9.74
2023-02-19T04:54:10.338Z,9.74
2023-02-19T04:55:10.335Z,9.69
2023-02-19T04:56:10.345Z,9.77
2023-02-19T04:57:10.328Z,9.69
2023-02-19T04:58:10.325Z,9.73
2023-02-19T04:59:10.321Z,9.77
2023-02-19T05:00:10.330Z,9.72
2023-02-19T05:01:10.807Z,9.72
2023-02-19T05:02:10.307Z,9.69
2023-02-19T05:03:10.306Z,9.74
2023-02-19T05:04:10.436Z,9.65
2023-02-19T05:05:10.296Z,9.68
2023-02-19T05:06:10.291Z,9.68
2023-02-19T05:07:10.291Z,9.66
2023-02-19T05:08:10.285Z,9.65
2023-02-19T05:09:10.281Z,9.66
2023-02-19T05:10:10.275Z,9.64
2023-02-19T05:11:10.629Z,9.65
2023-02-19T05:12:10.274Z,9.62
2023-02-19T05:13:10.324Z,9.65
2023-02-19T05:14:10.264Z,9.65
2023-02-19T05:15:10.255Z,9.73
2023-02-19T05:16:10.409Z,9.59
2023-02-19T05:17:10.251Z,9.64
2023-02-19T05:18:10.245Z,9.69
2023-02-19T05:19:10.245Z,9.69
2023-02-19T05:20:10.241Z,9.69
2023-02-19T05:21:10.730Z,9.66
2023-02-19T05:22:10.230Z,9.58
2023-02-19T05:23:10.226Z,9.59
2023-02-19T05:24:10.245Z,9.59
2023-02-19T05:25:10.220Z,9.68
2023-02-19T05:26:10.235Z,9.58
2023-02-19T05:27:10.212Z,9.59
2023-02-19T05:28:10.207Z,9.59
2023-02-19T05:29:10.202Z,9.61
2023-02-19T05:30:10.277Z,9.58
2023-02-19T05:31:10.662Z,9.55
2023-02-19T05:32:10.258Z,9.65
2023-02-19T05:33:10.184Z,9.64
2023-02-19T05:34:10.180Z,9.58
2023-02-19T05:35:10.179Z,9.58
2023-02-19T05:36:10.172Z,9.56
2023-02-19T05:37:10.178Z,9.59
2023-02-19T05:38:10.173Z,9.58
2023-02-19T05:39:10.160Z,9.61
2023-02-19T05:40:10.155Z,9.56
2023-02-19T05:41:10.409Z,9.51
2023-02-19T05:42:10.147Z,9.48
2023-02-19T05:43:10.145Z,9.54
2023-02-19T05:44:10.139Z,9.47
2023-02-19T05:45:10.145Z,9.55
2023-02-19T05:46:10.173Z,9.50
2023-02-19T05:47:10.127Z,9.58
2023-02-19T05:48:10.123Z,9.50
2023-02-19T05:49:10.119Z,9.50
2023-02-19T05:50:10.119Z,9.56
2023-02-19T05:51:10.525Z,9.58
2023-02-19T05:52:10.106Z,9.51
2023-02-19T05:53:10.112Z,9.58
2023-02-19T05:54:10.109Z,9.54
2023-02-19T05:55:10.096Z,9.58
2023-02-19T05:56:10.093Z,9.51
2023-02-19T05:57:10.086Z,9.54
2023-02-19T05:58:10.080Z,9.55
2023-02-19T05:59:10.083Z,9.55
2023-02-19T06:00:10.076Z,9.58
2023-02-19T06:01:10.391Z,9.62
2023-02-19T06:02:10.066Z,9.58
2023-02-19T06:03:10.062Z,9.51
2023-02-19T06:04:10.082Z,9.59
2023-02-19T06:05:10.058Z,9.58
2023-02-19T06:06:10.063Z,9.55
2023-02-19T06:07:10.048Z,9.58
2023-02-19T06:08:10.044Z,9.58
2023-02-19T06:09:10.037Z,9.55
2023-02-19T06:10:10.040Z,9.56
2023-02-19T06:11:10.388Z,9.56
2023-02-19T06:12:10.025Z,9.51
2023-02-19T06:13:10.032Z,9.54
2023-02-19T06:14:10.019Z,9.54
2023-02-19T06:15:10.015Z,9.59
2023-02-19T06:16:10.049Z,9.55
2023-02-19T06:17:10.013Z,9.55
2023-02-19T06:18:10.005Z,9.54
2023-02-19T06:19:09.998Z,9.59
2023-02-19T06:20:09.993Z,9.44
2023-02-19T06:21:10.278Z,9.48
2023-02-19T06:22:09.984Z,9.54
2023-02-19T06:23:09.988Z,9.48
2023-02-19T06:24:09.985Z,9.54
2023-02-19T06:25:09.974Z,9.47
2023-02-19T06:26:09.973Z,9.41
2023-02-19T06:27:09.964Z,9.54
2023-02-19T06:28:09.965Z,9.41
2023-02-19T06:29:09.957Z,9.44
2023-02-19T06:30:09.978Z,9.46
2023-02-19T06:31:10.427Z,9.40
2023-02-19T06:32:09.996Z,9.47
2023-02-19T06:33:09.957Z,9.50
2023-02-19T06:34:09.941Z,9.54
2023-02-19T06:35:09.935Z,9.58
2023-02-19T06:36:09.932Z,9.55
2023-02-19T06:37:09.928Z,9.59
2023-02-19T06:38:09.923Z,9.47
2023-02-19T06:39:09.923Z,9.48
2023-02-19T06:40:09.928Z,9.48
2023-02-19T06:41:10.370Z,9.48
2023-02-19T06:42:09.907Z,9.48
2023-02-19T06:43:09.904Z,9.55
2023-02-19T06:44:09.906Z,9.61
2023-02-19T06:45:09.906Z,9.54
2023-02-19T06:46:09.897Z,9.54
2023-02-19T06:47:09.888Z,9.55
2023-02-19T06:48:09.883Z,9.50
2023-02-19T06:49:09.880Z,9.40
2023-02-19T06:50:09.874Z,9.44
2023-02-19T06:51:10.213Z,9.54
2023-02-19T06:52:09.876Z,9.48
2023-02-19T06:53:09.865Z,9.54
2023-02-19T06:54:09.859Z,9.46
2023-02-19T06:55:09.862Z,9.54
2023-02-19T06:56:09.854Z,9.43
2023-02-19T06:57:09.852Z,9.43
2023-02-19T06:58:09.844Z,9.43
2023-02-19T06:59:09.841Z,9.47
2023-02-19T07:00:09.836Z,9.46
2023-02-19T07:01:10.222Z,9.44
2023-02-19T07:02:09.825Z,9.47
2023-02-19T07:03:09.823Z,9.40
2023-02-19T07:04:09.847Z,9.40
2023-02-19T07:05:09.817Z,9.48
2023-02-19T07:06:09.808Z,9.46
2023-02-19T07:07:09.804Z,9.44
2023-02-19T07:08:09.807Z,9.40
2023-02-19T07:09:09.802Z,9.46
2023-02-19T07:10:09.943Z,9.41
2023-02-19T07:11:10.251Z,9.41
2023-02-19T07:12:09.780Z,9.46
2023-02-19T07:13:09.786Z,9.43
2023-02-19T07:14:09.778Z,9.41
2023-02-19T07:15:09.783Z,9.46
2023-02-19T07:16:09.893Z,9.34
2023-02-19T07:17:09.764Z,9.37
2023-02-19T07:18:09.760Z,9.43
2023-02-19T07:19:09.755Z,9.32
2023-02-19T07:20:09.747Z,9.40
2023-02-19T07:21:10.257Z,9.31
2023-02-19T07:22:09.741Z,9.41
2023-02-19T07:23:09.742Z,9.29
2023-02-19T07:24:09.742Z,9.39
2023-02-19T07:25:09.723Z,9.40
2023-02-19T07:26:09.725Z,9.31
2023-02-19T07:27:09.716Z,9.31
2023-02-19T07:28:09.714Z,9.31
2023-02-19T07:29:09.714Z,9.34
2023-02-19T07:30:09.747Z,9.31
2023-02-19T07:31:10.127Z,9.28
2023-02-19T07:32:09.761Z,9.31
2023-02-19T07:33:10.631Z,9.32
2023-02-19T07:34:09.698Z,9.31
2023-02-19T07:35:09.684Z,9.32
2023-02-19T07:36:09.685Z,9.32
2023-02-19T07:37:09.680Z,9.32
2023-02-19T07:38:09.679Z,9.28
2023-02-19T07:39:10.250Z,9.29
2023-02-19T07:40:09.671Z,9.32
2023-02-19T07:41:10.055Z,9.32
2023-02-19T07:42:09.661Z,9.28
2023-02-19T07:43:09.657Z,9.28
2023-02-19T07:44:09.666Z,9.23
2023-02-19T07:45:09.649Z,9.22
2023-02-19T07:46:09.648Z,9.23
2023-02-19T07:47:09.640Z,9.25
2023-02-19T07:48:09.641Z,9.28
2023-02-19T07:49:09.634Z,9.29
2023-02-19T07:50:09.629Z,9.29
2023-02-19T07:51:10.009Z,9.31
2023-02-19T07:52:09.621Z,9.28
2023-02-19T07:53:09.616Z,9.31
2023-02-19T07:54:09.612Z,9.29
2023-02-19T07:55:09.609Z,9.29
2023-02-19T07:56:09.605Z,9.31
2023-02-19T07:57:09.599Z,9.32
2023-02-19T07:58:09.599Z,9.32
2023-02-19T07:59:09.594Z,9.34
2023-02-19T08:00:09.589Z,9.29
2023-02-19T08:01:10.147Z,9.25
2023-02-19T08:02:09.581Z,9.32
2023-02-19T08:03:09.627Z,9.31
2023-02-19T08:04:09.575Z,9.29
2023-02-19T08:05:09.568Z,9.25
2023-02-19T08:06:09.574Z,9.31
2023-02-19T08:07:09.558Z,9.32
2023-02-19T08:08:09.555Z,9.32
2023-02-19T08:09:09.556Z,9.25
2023-02-19T08:10:09.547Z,9.31
2023-02-19T08:11:09.986Z,9.36
2023-02-19T08:12:09.550Z,9.29
2023-02-19T08:13:09.532Z,9.29
2023-02-19T08:14:09.536Z,9.31
2023-02-19T08:15:09.527Z,9.23
2023-02-19T08:16:18.355Z,9.29
2023-02-19T08:17:09.566Z,9.31
2023-02-19T08:18:09.518Z,9.37
2023-02-19T08:19:09.512Z,9.37
2023-02-19T08:20:09.508Z,9.34
2023-02-19T08:21:09.730Z,9.31
2023-02-19T08:22:09.495Z,9.32
2023-02-19T08:23:09.504Z,9.31
2023-02-19T08:24:09.488Z,9.43
2023-02-19T08:25:09.488Z,9.39
2023-02-19T08:26:09.481Z,9.40
2023-02-19T08:27:09.474Z,9.32
2023-02-19T08:28:09.472Z,9.41
2023-02-19T08:29:09.471Z,9.44
2023-02-19T08:30:09.512Z,9.41
2023-02-19T08:31:09.843Z,9.46
2023-02-19T08:32:09.536Z,9.44
2023-02-19T08:33:09.451Z,9.41
2023-02-19T08:34:09.456Z,9.43
2023-02-19T08:35:09.440Z,9.48
2023-02-19T08:36:09.438Z,9.43
2023-02-19T08:37:09.441Z,9.43
2023-02-19T08:38:09.429Z,9.47
2023-02-19T08:39:09.421Z,9.43
2023-02-19T08:40:09.424Z,9.46
2023-02-19T08:41:09.904Z,9.39
2023-02-19T08:42:09.411Z,9.36
2023-02-19T08:43:09.404Z,9.31
2023-02-19T08:44:09.439Z,9.32
2023-02-19T08:45:09.396Z,9.31
2023-02-19T08:46:09.499Z,9.40
2023-02-19T08:47:09.385Z,9.46
2023-02-19T08:48:09.384Z,9.41
2023-02-19T08:49:09.379Z,9.31
2023-02-19T08:50:09.384Z,9.48
2023-02-19T08:51:09.846Z,9.43
2023-02-19T08:52:09.365Z,9.44
2023-02-19T08:53:09.359Z,9.46
2023-02-19T08:54:09.355Z,9.44
2023-02-19T08:55:09.356Z,9.43
2023-02-19T08:56:09.349Z,9.46
2023-02-19T08:57:09.353Z,9.43
2023-02-19T08:58:09.347Z,9.41
2023-02-19T08:59:09.337Z,9.48
2023-02-19T09:00:09.332Z,9.58
2023-02-19T09:01:09.604Z,9.55
2023-02-19T09:02:09.330Z,9.65
2023-02-19T09:03:09.331Z,9.64
2023-02-19T09:04:09.373Z,9.62
2023-02-19T09:05:09.308Z,9.68
2023-02-19T09:06:09.715Z,9.66
2023-02-19T09:07:09.299Z,9.62
2023-02-19T09:08:09.300Z,9.69
2023-02-19T09:09:09.298Z,9.66
2023-02-19T09:10:09.291Z,9.66
2023-02-19T09:11:09.746Z,9.69
2023-02-19T09:12:09.287Z,9.80
2023-02-19T09:13:09.278Z,9.77
2023-02-19T09:14:09.281Z,9.79
2023-02-19T09:15:09.278Z,9.76
2023-02-19T09:16:09.274Z,9.86
2023-02-19T09:17:09.260Z,9.84
2023-02-19T09:18:09.265Z,9.87
2023-02-19T09:19:09.255Z,9.87
2023-02-19T09:20:09.251Z,9.89
2023-02-19T09:21:09.554Z,9.84
2023-02-19T09:22:09.247Z,9.76
2023-02-19T09:23:09.235Z,9.66
2023-02-19T09:24:09.234Z,9.73
2023-02-19T09:25:09.234Z,9.74
2023-02-19T09:26:09.277Z,9.80
2023-02-19T09:27:09.226Z,9.79
2023-02-19T09:28:09.218Z,9.69
2023-02-19T09:29:09.213Z,9.86
2023-02-19T09:30:09.315Z,9.83
2023-02-19T09:31:09.708Z,9.82
2023-02-19T09:32:09.286Z,9.84
2023-02-19T09:33:09.198Z,9.89
2023-02-19T09:34:09.198Z,9.91
2023-02-19T09:35:09.190Z,9.92
2023-02-19T09:36:09.192Z,9.86
2023-02-19T09:37:09.182Z,10.02
2023-02-19T09:38:09.180Z,9.94
2023-02-19T09:39:09.177Z,9.86
2023-02-19T09:40:09.175Z,9.83
2023-02-19T09:41:09.590Z,9.82
2023-02-19T09:42:09.164Z,9.87
2023-02-19T09:43:09.159Z,9.87
2023-02-19T09:44:09.158Z,9.83
2023-02-19T09:45:09.151Z,9.82
2023-02-19T09:46:09.200Z,9.80
2023-02-19T09:47:09.144Z,9.84
2023-02-19T09:48:09.143Z,9.94
2023-02-19T09:49:09.138Z,9.89
2023-02-19T09:50:09.142Z,10.01
2023-02-19T09:51:09.408Z,9.92
2023-02-19T09:52:09.128Z,9.98
2023-02-19T09:53:09.124Z,9.97
2023-02-19T09:54:09.114Z,9.89
2023-02-19T09:55:09.112Z,9.89
2023-02-19T09:56:09.114Z,9.82
2023-02-19T09:57:09.108Z,9.83
2023-02-19T09:58:09.099Z,9.87
2023-02-19T09:59:09.094Z,9.86
2023-02-19T10:00:10.678Z,9.79
2023-02-19T10:01:09.199Z,9.84
2023-02-19T10:02:09.082Z,9.83
2023-02-19T10:03:09.089Z,9.80
2023-02-19T10:04:09.076Z,9.83
2023-02-19T10:05:09.098Z,9.86
2023-02-19T10:06:11.362Z,9.83
2023-02-19T10:07:09.061Z,9.80
2023-02-19T10:08:09.057Z,9.72
2023-02-19T10:09:09.052Z,9.73
2023-02-19T10:10:09.050Z,9.69
2023-02-19T10:11:09.358Z,9.73
2023-02-19T10:12:10.160Z,9.73
2023-02-19T10:13:09.036Z,9.74
2023-02-19T10:14:09.033Z,9.72
2023-02-19T10:15:09.029Z,9.69
2023-02-19T10:16:09.083Z,9.69
2023-02-19T10:17:09.020Z,9.69
2023-02-19T10:18:11.160Z,9.73
2023-02-19T10:19:09.014Z,9.69
2023-02-19T10:20:09.014Z,9.62
2023-02-19T10:21:09.469Z,9.68
2023-02-19T10:22:09.000Z,9.64
2023-02-19T10:23:08.995Z,9.68
2023-02-19T10:24:08.994Z,9.62
2023-02-19T10:25:08.986Z,9.66
2023-02-19T10:26:08.989Z,9.58
2023-02-19T10:27:08.981Z,9.61
2023-02-19T10:28:08.978Z,9.58
2023-02-19T10:29:08.971Z,9.59
2023-02-19T10:30:09.040Z,9.58
2023-02-19T10:31:09.160Z,9.68
2023-02-19T10:32:09.028Z,9.69
2023-02-19T10:33:08.963Z,9.68
2023-02-19T10:34:08.954Z,9.62
2023-02-19T10:35:08.951Z,9.69
2023-02-19T10:36:08.945Z,9.66
2023-02-19T10:37:08.941Z,9.66
2023-02-19T10:38:08.937Z,9.68
2023-02-19T10:39:08.938Z,9.69
2023-02-19T10:40:08.929Z,9.65
2023-02-19T10:41:09.096Z,9.65
2023-02-19T10:42:08.922Z,9.66
2023-02-19T10:43:08.916Z,9.74
2023-02-19T10:44:08.922Z,9.82
2023-02-19T10:45:08.908Z,9.99
2023-02-19T10:46:08.974Z,9.95
2023-02-19T10:47:08.900Z,10.05
2023-02-19T10:48:08.901Z,10.05
2023-02-19T10:49:08.890Z,10.02
2023-02-19T10:50:08.905Z,10.02
2023-02-19T10:51:09.108Z,10.15
2023-02-19T10:52:08.880Z,10.16
2023-02-19T10:53:08.876Z,10.16
2023-02-19T10:54:08.873Z,10.15
2023-02-19T10:55:08.873Z,10.12
2023-02-19T10:56:08.881Z,10.12
2023-02-19T10:57:08.859Z,10.13
2023-02-19T10:58:08.856Z,10.09
2023-02-19T10:59:08.852Z,10.09
2023-02-19T11:00:08.848Z,9.91
2023-02-19T11:01:09.227Z,10.01
2023-02-19T11:02:08.840Z,9.92
2023-02-19T11:03:08.838Z,9.89
2023-02-19T11:04:08.858Z,9.80
2023-02-19T11:05:08.827Z,9.87
2023-02-19T11:06:08.822Z,9.80
2023-02-19T11:07:08.818Z,9.80
2023-02-19T11:08:08.816Z,9.69
2023-02-19T11:09:08.815Z,9.74
2023-02-19T11:10:08.808Z,9.69
2023-02-19T11:11:09.123Z,9.74
2023-02-19T11:12:09.638Z,9.65
2023-02-19T11:13:08.796Z,9.73
2023-02-19T11:14:08.793Z,9.55
2023-02-19T11:15:08.794Z,9.55
2023-02-19T11:16:08.809Z,9.56
2023-02-19T11:17:08.777Z,9.59
2023-02-19T11:18:08.776Z,9.56
2023-02-19T11:19:08.769Z,9.69
2023-02-19T11:20:08.766Z,9.65
2023-02-19T11:21:08.878Z,9.73
2023-02-19T11:22:08.758Z,9.74
2023-02-19T11:23:08.754Z,9.72
2023-02-19T11:24:08.753Z,9.69
2023-02-19T11:25:08.751Z,9.74
2023-02-19T11:26:08.739Z,9.77
2023-02-19T11:27:08.740Z,9.82
2023-02-19T11:28:08.734Z,9.84
2023-02-19T11:29:08.728Z,9.82
2023-02-19T11:30:08.756Z,9.94
2023-02-19T11:31:08.983Z,9.92
2023-02-19T11:32:08.808Z,9.91
2023-02-19T11:33:08.712Z,9.95
2023-02-19T11:34:08.717Z,9.82
2023-02-19T11:35:08.705Z,9.73
2023-02-19T11:36:08.707Z,9.72
2023-02-19T11:37:08.696Z,9.65
2023-02-19T11:38:08.704Z,9.68
2023-02-19T11:39:08.692Z,9.59
2023-02-19T11:40:08.687Z,9.54
2023-02-19T11:41:08.818Z,9.58
2023-02-19T11:42:08.684Z,9.55
2023-02-19T11:43:08.677Z,9.51
2023-02-19T11:44:08.675Z,9.56
2023-02-19T11:45:08.673Z,9.61
2023-02-19T11:46:08.665Z,9.55
2023-02-19T11:47:08.663Z,9.50
2023-02-19T11:48:08.658Z,9.37
2023-02-19T11:49:08.655Z,9.46
2023-02-19T11:50:08.698Z,9.47
2023-02-19T11:51:08.891Z,9.40
2023-02-19T11:52:08.649Z,9.43
2023-02-19T11:53:08.638Z,9.39
2023-02-19T11:54:08.632Z,9.41
2023-02-19T11:55:08.633Z,9.43
2023-02-19T11:56:08.623Z,9.43
2023-02-19T11:57:08.618Z,9.58
2023-02-19T11:58:08.614Z,9.59
2023-02-19T11:59:08.613Z,9.58
2023-02-19T12:00:08.611Z,9.69
2023-02-19T12:01:08.824Z,9.64
2023-02-19T12:02:08.619Z,9.74
2023-02-19T12:03:08.594Z,9.76
2023-02-19T12:04:08.588Z,9.79
2023-02-19T12:05:08.620Z,9.83
2023-02-19T12:06:08.908Z,9.82
2023-02-19T12:07:08.601Z,9.83
2023-02-19T12:08:08.570Z,9.87
2023-02-19T12:09:08.568Z,9.79
2023-02-19T12:10:08.566Z,9.83
2023-02-19T12:11:08.558Z,9.80
2023-02-19T12:12:08.556Z,9.82
2023-02-19T12:13:08.550Z,9.84
2023-02-19T12:14:08.544Z,9.77
2023-02-19T12:15:08.542Z,9.80
2023-02-19T12:16:08.564Z,9.72
2023-02-19T12:17:08.531Z,9.69
2023-02-19T12:18:08.528Z,9.65
2023-02-19T12:19:08.534Z,9.66
2023-02-19T12:20:08.523Z,9.68
2023-02-19T12:21:08.807Z,9.64
2023-02-19T12:22:08.517Z,9.62
2023-02-19T12:23:08.508Z,9.62
2023-02-19T12:24:08.502Z,9.56
2023-02-19T12:25:08.504Z,9.48
2023-02-19T12:26:08.924Z,9.46
2023-02-19T12:27:08.841Z,9.47
2023-02-19T12:28:08.485Z,9.48
2023-02-19T12:29:08.483Z,9.56
2023-02-19T12:30:08.528Z,9.46
2023-02-19T12:31:08.554Z,9.54
2023-02-19T12:32:08.516Z,9.61
2023-02-19T12:33:08.465Z,9.65
2023-02-19T12:34:08.468Z,9.69
2023-02-19T12:35:08.458Z,9.69
2023-02-19T12:36:08.783Z,9.74
2023-02-19T12:37:08.450Z,9.68
2023-02-19T12:38:08.444Z,9.69
2023-02-19T12:39:08.444Z,9.69
2023-02-19T12:40:08.434Z,9.72
2023-02-19T12:41:08.432Z,9.74
2023-02-19T12:42:08.429Z,9.68
2023-02-19T12:43:08.429Z,9.73
2023-02-19T12:44:08.433Z,9.69
2023-02-19T12:45:08.426Z,9.74
2023-02-19T12:46:08.521Z,9.74
2023-02-19T12:47:08.409Z,9.69
2023-02-19T12:48:08.407Z,9.66
2023-02-19T12:49:08.402Z,9.66
2023-02-19T12:50:08.395Z,9.69
2023-02-19T12:51:08.401Z,9.74
2023-02-19T12:52:08.391Z,9.82
2023-02-19T12:53:08.384Z,9.73
2023-02-19T12:54:08.380Z,9.72
2023-02-19T12:55:08.384Z,9.80
2023-02-19T12:56:08.482Z,9.83
2023-02-19T12:57:08.372Z,9.89
2023-02-19T12:58:08.366Z,9.80
2023-02-19T12:59:08.368Z,9.84
2023-02-19T13:00:08.359Z,9.89
2023-02-19T13:01:08.381Z,9.84
2023-02-19T13:02:08.374Z,9.79
2023-02-19T13:03:08.361Z,9.84
2023-02-19T13:04:08.349Z,9.79
2023-02-19T13:05:08.355Z,9.89
2023-02-19T13:06:10.507Z,9.89
2023-02-19T13:07:08.338Z,9.94
2023-02-19T13:08:08.327Z,9.84
2023-02-19T13:09:08.332Z,9.92
2023-02-19T13:10:08.321Z,10.01
2023-02-19T13:11:08.406Z,10.01